createdAt,value
2019-01-16T00:01:17.411Z,24.37
2019-01-16T00:03:53.504Z,23.97
2019-01-16T00:06:26.425Z,31.50
2019-01-16T00:08:56.253Z,26.17
2019-01-16T00:11:35.688Z,25.97
2019-01-16T00:14:20.992Z,27.50
2019-01-16T00:16:53.844Z,27.10
2019-01-16T00:19:26.637Z,24.00
2019-01-16T00:22:13.714Z,21.90
2019-01-16T00:25:01.536Z,25.60
2019-01-16T00:27:43.285Z,21.03
2019-01-16T00:30:16.726Z,22.77
2019-01-16T00:32:49.488Z,19.67
2019-01-16T00:35:19.348Z,20.53
2019-01-16T00:38:05.285Z,22.87
2019-01-16T00:40:51.457Z,20.73
2019-01-16T00:43:37.658Z,21.87
2019-01-16T00:46:23.872Z,15.90
2019-01-16T00:49:10.335Z,18.93
2019-01-16T00:51:42.833Z,14.73
2019-01-16T00:54:24.957Z,16.13
2019-01-16T00:57:07.141Z,15.67
2019-01-16T00:59:39.888Z,16.97
2019-01-16T01:02:26.318Z,13.93
2019-01-16T01:05:11.777Z,16.03
2019-01-16T01:07:58.199Z,15.33
2019-01-16T01:10:28.021Z,15.07
2019-01-16T01:13:14.465Z,15.00
2019-01-16T01:15:50.241Z,14.80
2019-01-16T01:18:40.948Z,9.30
2019-01-16T01:21:14.341Z,12.53
2019-01-16T01:24:00.705Z,13.47
2019-01-16T01:26:47.187Z,16.47
2019-01-16T01:29:17.005Z,15.67
2019-01-16T01:31:55.816Z,15.63
2019-01-16T01:34:28.525Z,14.03
2019-01-16T01:37:07.580Z,14.27
2019-01-16T01:39:53.628Z,14.43
2019-01-16T01:42:40.088Z,16.20
2019-01-16T01:45:25.604Z,16.10
2019-01-16T01:47:58.397Z,19.23
2019-01-16T01:50:28.262Z,16.23
2019-01-16T01:52:58.095Z,18.10
2019-01-16T01:55:27.952Z,16.20
2019-01-16T01:58:13.038Z,13.10
2019-01-16T02:00:57.873Z,14.47
2019-01-16T02:03:39.994Z,17.00
2019-01-16T02:06:19.037Z,18.30
2019-01-16T02:08:51.937Z,13.87
2019-01-16T02:11:30.739Z,13.33
2019-01-16T02:14:15.607Z,15.17
2019-01-16T02:16:45.465Z,16.90
2019-01-16T02:19:27.291Z,18.20
2019-01-16T02:21:57.127Z,16.03
2019-01-16T02:24:30.004Z,17.70
2019-01-16T02:27:15.100Z,16.03
2019-01-16T02:29:56.732Z,17.50
2019-01-16T02:32:35.742Z,16.17
2019-01-16T02:35:22.322Z,19.47
2019-01-16T02:38:01.371Z,20.80
2019-01-16T02:40:40.181Z,20.20
2019-01-16T02:43:13.106Z,21.23
2019-01-16T02:45:42.960Z,21.47
2019-01-16T02:48:18.797Z,21.23
2019-01-16T02:50:48.669Z,23.87
2019-01-16T02:53:27.893Z,22.90
2019-01-16T02:56:00.810Z,22.03
2019-01-16T02:58:30.685Z,22.33
2019-01-16T03:01:00.524Z,24.80
2019-01-16T03:03:36.440Z,21.10
2019-01-16T03:06:18.477Z,23.67
2019-01-16T03:09:04.868Z,22.50
2019-01-16T03:11:46.805Z,23.77
2019-01-16T03:14:22.325Z,27.00
2019-01-16T03:16:55.067Z,21.97
2019-01-16T03:19:43.033Z,25.00
2019-01-16T03:22:15.977Z,31.87
2019-01-16T03:24:55.087Z,22.90
2019-01-16T03:27:25.000Z,31.70
2019-01-16T03:30:03.911Z,28.97
2019-01-16T03:32:33.779Z,30.97
2019-01-16T03:35:06.500Z,24.67
2019-01-16T03:37:39.515Z,29.17
2019-01-16T03:40:27.221Z,29.50
2019-01-16T03:43:00.012Z,33.13
2019-01-16T03:45:29.871Z,26.20
2019-01-16T03:48:02.293Z,28.50
2019-01-16T03:50:43.844Z,29.90
2019-01-16T03:53:32.217Z,28.20
2019-01-16T03:56:02.036Z,34.50
2019-01-16T03:58:40.589Z,35.77
2019-01-16T04:01:10.465Z,41.10
2019-01-16T04:03:40.317Z,48.17
2019-01-16T04:06:10.152Z,46.40
2019-01-16T04:08:56.512Z,48.47
2019-01-16T04:11:26.360Z,51.67
2019-01-16T04:13:59.157Z,48.50
2019-01-16T04:16:33.357Z,48.60
2019-01-16T04:19:11.933Z,47.30
2019-01-16T04:21:47.736Z,43.23
2019-01-16T04:24:23.531Z,51.20
2019-01-16T04:26:59.160Z,49.90
2019-01-16T04:29:37.750Z,44.90
2019-01-16T04:32:10.224Z,47.30
2019-01-16T04:34:46.156Z,53.33
2019-01-16T04:39:50.993Z,54.65
2019-01-16T04:42:20.836Z,52.70
2019-01-16T04:44:56.674Z,54.53
2019-01-16T04:47:26.573Z,52.90
2019-01-16T04:49:59.126Z,45.83
2019-01-16T04:52:45.548Z,51.20
2019-01-16T04:55:30.600Z,49.57
2019-01-16T04:58:09.652Z,48.43
2019-01-16T05:00:48.508Z,45.37
2019-01-16T05:03:21.294Z,53.13
2019-01-16T05:05:57.246Z,53.13
2019-01-16T05:08:30.201Z,44.83
2019-01-16T05:11:02.493Z,48.57
2019-01-16T05:13:48.989Z,47.87
2019-01-16T05:16:18.865Z,48.90
2019-01-16T05:19:05.432Z,45.77
2019-01-16T05:21:50.577Z,42.07
2019-01-16T05:24:32.691Z,43.70
2019-01-16T05:27:02.617Z,37.87
2019-01-16T05:29:48.557Z,44.67
2019-01-16T05:32:20.056Z,38.07
2019-01-16T05:35:07.945Z,36.67
2019-01-16T05:37:40.565Z,36.70
2019-01-16T05:40:27.175Z,41.00
2019-01-16T05:43:12.261Z,35.47
2019-01-16T05:45:54.085Z,38.27
2019-01-16T05:48:23.912Z,31.03
2019-01-16T05:50:53.765Z,28.50
2019-01-16T05:53:23.722Z,31.57
2019-01-16T05:55:56.362Z,24.70
2019-01-16T05:58:28.864Z,31.17
2019-01-16T06:00:58.722Z,30.87
2019-01-16T06:03:37.362Z,30.00
2019-01-16T06:06:12.871Z,27.60
2019-01-16T06:08:45.500Z,31.90
2019-01-16T06:11:31.793Z,28.73
2019-01-16T06:14:04.569Z,23.80
2019-01-16T06:16:34.436Z,25.30
2019-01-16T06:19:16.412Z,27.00
2019-01-16T06:21:46.235Z,31.73
2019-01-16T06:24:24.969Z,25.30
2019-01-16T06:26:54.841Z,29.97
2019-01-16T06:29:36.988Z,31.87
2019-01-16T06:32:21.834Z,35.30
2019-01-16T06:35:09.797Z,29.83
2019-01-16T06:37:42.577Z,33.40
2019-01-16T06:40:15.140Z,32.23
2019-01-16T06:42:54.232Z,31.03
2019-01-16T06:45:24.048Z,35.47
2019-01-16T06:47:53.871Z,33.03
2019-01-16T06:50:26.429Z,33.73
2019-01-16T06:53:05.329Z,35.40
2019-01-16T06:55:37.613Z,35.30
2019-01-16T06:58:13.252Z,30.43
2019-01-16T07:00:43.092Z,35.75
2019-01-16T07:03:18.864Z,36.47
2019-01-16T07:05:54.651Z,37.13
2019-01-16T07:08:24.480Z,35.23
2019-01-16T07:11:11.037Z,42.80
2019-01-16T07:13:43.865Z,33.10
2019-01-16T07:16:13.688Z,37.03
2019-01-16T07:18:55.554Z,36.30
2019-01-16T07:21:34.595Z,33.73
2019-01-16T07:24:13.471Z,38.03
2019-01-16T07:29:40.133Z,31.03
2019-01-16T07:32:22.003Z,33.00
2019-01-16T07:35:01.135Z,32.70
2019-01-16T07:37:33.822Z,32.97
2019-01-16T07:40:20.297Z,29.00
2019-01-16T07:42:59.297Z,33.20
2019-01-16T07:45:31.891Z,34.60
2019-01-16T07:48:07.709Z,32.50
2019-01-16T07:50:37.578Z,31.00
2019-01-16T07:53:13.508Z,36.33
2019-01-16T07:55:49.341Z,32.43
2019-01-16T07:58:22.064Z,33.70
2019-01-16T08:00:58.155Z,26.60
2019-01-16T08:03:39.851Z,28.43
2019-01-16T08:06:12.677Z,31.00
2019-01-16T08:08:58.935Z,29.47
2019-01-16T08:11:47.092Z,24.90
2019-01-16T08:14:33.136Z,26.97
2019-01-16T08:17:19.617Z,27.80
2019-01-16T08:20:06.002Z,25.07
2019-01-16T08:22:35.892Z,23.60
2019-01-16T08:25:06.153Z,28.10
2019-01-16T08:27:52.543Z,27.20
2019-01-16T08:30:22.465Z,26.53
2019-01-16T08:33:04.205Z,24.27
2019-01-16T08:35:34.071Z,28.43
2019-01-16T08:38:13.148Z,24.47
2019-01-16T08:40:59.213Z,21.97
2019-01-16T08:43:29.036Z,21.70
2019-01-16T08:45:58.878Z,22.47
2019-01-16T08:48:28.700Z,22.10
2019-01-16T08:51:14.921Z,21.63
2019-01-16T08:53:44.739Z,26.13
2019-01-16T08:56:32.967Z,21.30
2019-01-16T08:59:08.589Z,21.87
2019-01-16T09:01:54.816Z,20.90
2019-01-16T09:04:30.808Z,19.97
2019-01-16T09:07:03.589Z,20.80
2019-01-16T09:09:49.740Z,22.70
2019-01-16T09:12:25.565Z,23.57
2019-01-16T09:14:55.500Z,20.87
2019-01-16T09:17:25.329Z,20.93
2019-01-16T09:19:55.185Z,20.20
2019-01-16T09:22:44.943Z,23.00
2019-01-16T09:25:14.999Z,21.90
2019-01-16T09:27:56.843Z,18.07
2019-01-16T09:30:35.909Z,22.63
2019-01-16T09:33:05.821Z,18.50
2019-01-16T09:35:38.353Z,18.20
2019-01-16T09:38:24.540Z,18.80
2019-01-16T09:41:00.635Z,16.00
2019-01-16T09:43:45.736Z,17.07
2019-01-16T09:46:18.243Z,20.90
2019-01-16T09:48:48.090Z,22.17
2019-01-16T09:51:30.261Z,18.90
2019-01-16T09:54:08.845Z,21.00
2019-01-16T09:56:47.480Z,16.70
2019-01-16T09:59:33.781Z,17.40
2019-01-16T10:02:03.652Z,18.13
2019-01-16T10:04:39.388Z,16.97
2019-01-16T10:07:11.953Z,21.27
2019-01-16T10:09:50.889Z,20.70
2019-01-16T10:12:37.036Z,19.53
2019-01-16T10:15:11.702Z,17.13
2019-01-16T10:17:41.548Z,18.70
2019-01-16T10:20:17.784Z,19.67
2019-01-16T10:22:56.772Z,17.50
2019-01-16T10:25:32.852Z,19.70
2019-01-16T10:28:11.640Z,17.33
2019-01-16T10:30:44.290Z,16.70
2019-01-16T10:33:20.035Z,12.83
2019-01-16T10:35:55.854Z,13.33
2019-01-16T10:38:31.787Z,13.20
2019-01-16T10:41:18.508Z,11.60
2019-01-16T10:43:51.287Z,15.27
2019-01-16T10:46:24.083Z,13.23
2019-01-16T10:48:53.957Z,12.73
2019-01-16T10:51:26.745Z,11.83
2019-01-16T10:53:56.606Z,11.33
2019-01-16T10:56:29.361Z,11.33
2019-01-16T10:58:59.248Z,12.50
2019-01-16T11:01:41.236Z,11.27
2019-01-16T11:04:23.316Z,12.13
2019-01-16T11:06:53.165Z,13.37
2019-01-16T11:09:25.696Z,13.67
2019-01-16T11:12:04.358Z,13.70
2019-01-16T11:14:49.461Z,12.67
2019-01-16T11:17:21.851Z,9.10
2019-01-16T11:19:54.777Z,12.27
2019-01-16T11:22:42.925Z,8.70
2019-01-16T11:25:29.208Z,11.43
2019-01-16T11:27:59.086Z,9.07
2019-01-16T11:30:28.971Z,12.03
2019-01-16T11:33:07.528Z,11.73
2019-01-16T11:35:43.117Z,10.40
2019-01-16T11:38:12.965Z,12.67
2019-01-16T11:40:45.317Z,10.27
2019-01-16T11:43:15.165Z,10.97
2019-01-16T11:46:01.273Z,9.47
2019-01-16T11:48:31.129Z,14.03
2019-01-16T11:51:06.622Z,9.17
2019-01-16T11:53:42.189Z,8.00
2019-01-16T11:56:11.997Z,9.33
2019-01-16T11:59:00.334Z,14.93
2019-01-16T12:01:36.230Z,9.67
2019-01-16T12:04:08.639Z,9.23
2019-01-16T12:06:56.713Z,8.85
2019-01-16T12:09:35.219Z,7.90
2019-01-16T12:12:13.997Z,8.83
2019-01-16T12:14:46.740Z,8.70
2019-01-16T12:17:16.554Z,7.97
2019-01-16T12:19:52.260Z,6.70
2019-01-16T12:22:24.983Z,9.07
2019-01-16T12:24:57.520Z,7.27
2019-01-16T12:27:30.021Z,8.33
2019-01-16T12:30:02.789Z,9.55
2019-01-16T12:32:50.814Z,10.10
2019-01-16T12:35:20.631Z,10.30
2019-01-16T12:38:06.809Z,11.30
2019-01-16T12:40:36.621Z,8.13
2019-01-16T12:43:15.434Z,9.83
2019-01-16T12:45:54.533Z,8.60
2019-01-16T12:48:24.373Z,8.40
2019-01-16T12:50:59.908Z,6.97
2019-01-16T12:53:29.767Z,7.60
2019-01-16T12:55:59.613Z,6.90
2019-01-16T12:58:32.364Z,7.53
2019-01-16T13:01:02.224Z,10.70
2019-01-16T13:03:37.865Z,9.00
2019-01-16T13:09:08.313Z,8.50
2019-01-16T13:11:38.171Z,7.70
2019-01-16T13:14:30.060Z,8.93
2019-01-16T13:16:57.893Z,8.00
2019-01-16T13:19:33.469Z,9.35
2019-01-16T13:22:03.300Z,5.23
2019-01-16T13:24:36.028Z,8.37
2019-01-16T13:27:21.004Z,5.63
2019-01-16T13:29:50.844Z,9.50
2019-01-16T13:32:37.287Z,9.23
2019-01-16T13:35:13.638Z,6.27
2019-01-16T13:37:46.145Z,6.00
2019-01-16T13:40:28.133Z,6.90
2019-01-16T13:43:15.821Z,6.43
2019-01-16T13:45:57.249Z,5.87
2019-01-16T13:48:27.060Z,6.90
2019-01-16T13:51:02.965Z,5.67
2019-01-16T13:53:35.748Z,5.60
2019-01-16T13:56:05.662Z,6.57
2019-01-16T13:58:38.150Z,6.00
2019-01-16T14:01:16.724Z,6.43
2019-01-16T14:03:58.897Z,6.10
2019-01-16T14:06:31.530Z,8.20
2019-01-16T14:09:07.097Z,4.97
2019-01-16T14:11:50.115Z,7.33
2019-01-16T14:14:19.951Z,6.60
2019-01-16T14:17:01.993Z,9.47
2019-01-16T14:19:48.219Z,7.50
2019-01-16T14:22:27.282Z,7.40
2019-01-16T14:25:00.090Z,5.83
2019-01-16T14:27:45.238Z,6.10
2019-01-16T14:30:22.201Z,7.90
2019-01-16T14:33:10.449Z,9.90
2019-01-16T14:35:40.285Z,6.80
2019-01-16T14:38:26.360Z,7.10
2019-01-16T14:40:58.660Z,7.77
2019-01-16T14:43:28.505Z,8.23
2019-01-16T14:45:58.393Z,7.83
2019-01-16T14:48:40.404Z,7.93
2019-01-16T14:51:13.027Z,6.43
2019-01-16T14:53:45.803Z,7.77
2019-01-16T14:56:27.852Z,8.57
2019-01-16T14:59:00.685Z,6.03
2019-01-16T15:01:48.511Z,7.10
2019-01-16T15:04:36.802Z,6.90
2019-01-16T15:07:21.588Z,7.53
2019-01-16T15:09:57.201Z,7.50
2019-01-16T15:12:43.404Z,7.77
2019-01-16T15:15:13.452Z,7.77
2019-01-16T15:17:43.292Z,7.40
2019-01-16T15:20:31.319Z,10.90
2019-01-16T15:23:01.276Z,9.20
2019-01-16T15:25:34.088Z,8.80
2019-01-16T15:28:20.533Z,7.67
2019-01-16T15:30:53.064Z,9.47
2019-01-16T15:33:25.580Z,9.93
2019-01-16T15:36:12.036Z,8.67
2019-01-16T15:38:54.190Z,7.73
2019-01-16T15:41:42.259Z,8.57
2019-01-16T15:44:28.705Z,9.70
2019-01-16T15:46:58.527Z,9.30
2019-01-16T15:49:44.775Z,13.80
2019-01-16T15:52:23.901Z,11.57
2019-01-16T15:54:56.473Z,13.57
2019-01-16T15:57:38.029Z,9.40
2019-01-16T16:00:15.000Z,13.13
2019-01-16T16:02:50.576Z,10.73
2019-01-16T16:05:32.432Z,11.63
2019-01-16T16:08:02.284Z,13.70
2019-01-16T16:10:41.145Z,8.70
2019-01-16T16:13:10.957Z,14.33
2019-01-16T16:15:43.947Z,10.50
2019-01-16T16:18:19.905Z,7.80
2019-01-16T16:20:49.756Z,8.57
2019-01-16T16:23:37.541Z,15.37
2019-01-16T16:26:24.101Z,10.23
2019-01-16T16:29:02.820Z,9.63
2019-01-16T16:31:35.721Z,8.70
2019-01-16T16:34:08.631Z,13.73
2019-01-16T16:36:38.502Z,10.40
2019-01-16T16:39:18.259Z,10.20
2019-01-16T16:41:50.569Z,10.20
2019-01-16T16:44:23.451Z,12.40
2019-01-16T16:46:55.988Z,12.93
2019-01-16T16:49:34.731Z,10.03
2019-01-16T16:52:25.875Z,14.33
2019-01-16T16:54:52.501Z,9.70
2019-01-16T16:57:22.315Z,12.63
2019-01-16T17:00:04.407Z,9.93
2019-01-16T17:02:50.981Z,15.83
2019-01-16T17:05:29.948Z,10.33
2019-01-16T17:08:05.740Z,14.57
2019-01-16T17:10:35.597Z,16.27
2019-01-16T17:13:05.447Z,18.60
2019-01-16T17:15:38.432Z,15.47
2019-01-16T17:18:08.255Z,13.20
2019-01-16T17:20:47.048Z,10.67
2019-01-16T17:23:33.481Z,14.10
2019-01-16T17:26:07.034Z,15.67
2019-01-16T17:28:36.844Z,13.90
2019-01-16T17:31:12.739Z,13.50
2019-01-16T17:33:45.444Z,12.27
2019-01-16T17:36:21.003Z,15.43
2019-01-16T17:39:03.004Z,12.80
2019-01-16T17:41:32.832Z,11.77
2019-01-16T17:44:08.621Z,9.57
2019-01-16T17:46:41.424Z,12.80
2019-01-16T17:52:25.747Z,12.80
2019-01-16T17:54:58.282Z,10.70
2019-01-16T17:57:31.092Z,12.10
2019-01-16T18:00:17.735Z,9.63
2019-01-16T18:02:47.552Z,11.17
2019-01-16T18:05:26.448Z,13.93
2019-01-16T18:08:05.377Z,13.07
2019-01-16T18:10:38.004Z,11.90
2019-01-16T18:13:10.736Z,11.23
2019-01-16T18:15:58.805Z,8.97
2019-01-16T18:18:37.557Z,10.27
2019-01-16T18:21:07.402Z,17.50
2019-01-16T18:23:37.220Z,14.63
2019-01-16T18:26:23.161Z,12.83
2019-01-16T18:29:02.109Z,11.80
2019-01-16T18:31:37.685Z,15.03
2019-01-16T18:34:07.530Z,14.83
2019-01-16T18:36:52.280Z,11.10
2019-01-16T18:39:22.130Z,16.07
2019-01-16T18:41:57.952Z,13.60
2019-01-16T18:44:33.241Z,13.40
2019-01-16T18:47:21.460Z,11.40
2019-01-16T18:49:57.332Z,15.70
2019-01-16T18:52:30.059Z,15.23
2019-01-16T18:55:05.770Z,14.57
2019-01-16T18:57:35.636Z,14.50
2019-01-16T19:00:12.719Z,14.90
2019-01-16T19:02:45.529Z,15.83
2019-01-16T19:05:15.406Z,12.17
2019-01-16T19:07:45.215Z,15.23
2019-01-16T19:10:15.066Z,12.53
2019-01-16T19:12:51.113Z,14.40
2019-01-16T19:15:27.185Z,17.00
2019-01-16T19:17:56.999Z,13.33
2019-01-16T19:20:26.854Z,16.50
2019-01-16T19:23:13.145Z,12.30
2019-01-16T19:25:45.891Z,10.83
2019-01-16T19:28:15.708Z,14.10
2019-01-16T19:30:57.683Z,14.77
2019-01-16T19:33:27.537Z,13.40
2019-01-16T19:36:14.084Z,13.60
2019-01-16T19:39:00.373Z,11.90
2019-01-16T19:41:39.163Z,15.83
2019-01-16T19:44:23.705Z,14.50
2019-01-16T19:46:59.584Z,11.60
2019-01-16T19:49:32.249Z,15.00
2019-01-16T19:52:04.728Z,14.33
2019-01-16T19:54:34.552Z,14.30
2019-01-16T19:57:04.474Z,15.07
2019-01-16T19:59:43.536Z,11.83
2019-01-16T20:02:15.219Z,15.43
2019-01-16T20:04:50.955Z,16.00
2019-01-16T20:07:23.773Z,15.57
2019-01-16T20:09:53.652Z,14.60
2019-01-16T20:12:23.528Z,13.43
2019-01-16T20:15:05.352Z,11.57
2019-01-16T20:17:37.988Z,12.63
2019-01-16T20:20:11.910Z,17.80
2019-01-16T20:22:47.428Z,12.13
2019-01-16T20:25:23.187Z,13.97
2019-01-16T20:27:59.026Z,17.43
2019-01-16T20:30:37.872Z,15.97
2019-01-16T20:33:24.143Z,13.20
2019-01-16T20:36:13.732Z,17.00
2019-01-16T20:38:46.315Z,15.87
2019-01-16T20:41:24.853Z,15.63
2019-01-16T20:43:54.716Z,21.40
2019-01-16T20:46:27.540Z,20.90
2019-01-16T20:48:57.393Z,20.30
2019-01-16T20:51:27.237Z,14.67
2019-01-16T20:54:05.968Z,17.43
2019-01-16T20:56:52.149Z,16.60
2019-01-16T20:59:40.097Z,18.20
2019-01-16T21:02:25.176Z,16.67
2019-01-16T21:05:04.137Z,14.50
2019-01-16T21:07:37.059Z,19.53
2019-01-16T21:10:10.908Z,17.33
2019-01-16T21:12:53.000Z,19.20
2019-01-16T21:15:35.135Z,17.93
2019-01-16T21:18:21.639Z,17.90
2019-01-16T21:20:54.628Z,20.90
2019-01-16T21:23:40.982Z,15.00
2019-01-16T21:26:13.736Z,16.00
2019-01-16T21:28:49.587Z,15.03
2019-01-16T21:31:25.294Z,16.67
2019-01-16T21:33:55.124Z,18.50
2019-01-16T21:36:37.117Z,15.70
2019-01-16T21:39:16.656Z,17.60
2019-01-16T21:41:55.439Z,23.90
2019-01-16T21:44:40.545Z,21.00
2019-01-16T21:47:19.514Z,40.77
2019-01-16T21:49:49.636Z,24.27
2019-01-16T21:52:25.465Z,26.83
2019-01-16T21:54:55.333Z,18.27
2019-01-16T21:57:31.075Z,26.03
2019-01-16T22:00:03.648Z,19.07
2019-01-16T22:02:36.319Z,15.60
2019-01-16T22:05:24.220Z,17.03
2019-01-16T22:07:57.033Z,22.50
2019-01-16T22:10:32.317Z,19.87
2019-01-16T22:13:11.189Z,21.30
2019-01-16T22:15:53.035Z,18.63
2019-01-16T22:18:34.912Z,24.15
2019-01-16T22:21:07.696Z,26.30
2019-01-16T22:23:40.497Z,22.00
2019-01-16T22:26:16.448Z,24.20
2019-01-16T22:29:02.609Z,24.20
2019-01-16T22:31:49.109Z,25.35
2019-01-16T22:34:22.141Z,21.75
2019-01-16T22:36:54.941Z,18.50
2019-01-16T22:39:40.965Z,25.25
2019-01-16T22:42:10.820Z,22.25
2019-01-16T22:44:43.364Z,26.85
2019-01-16T22:47:15.844Z,22.00
2019-01-16T22:49:57.520Z,27.07
2019-01-16T22:52:27.349Z,22.15
2019-01-16T22:54:59.904Z,21.90
2019-01-16T22:57:35.629Z,21.70
2019-01-16T23:00:19.161Z,27.65
2019-01-16T23:03:01.231Z,27.70
2019-01-16T23:05:37.293Z,22.35
2019-01-16T23:08:07.137Z,23.20
2019-01-16T23:10:37.040Z,20.90
2019-01-16T23:13:06.856Z,23.40
2019-01-16T23:18:25.013Z,20.55
2019-01-16T23:20:54.836Z,16.20
2019-01-16T23:26:05.369Z,21.30
2019-01-16T23:28:41.188Z,24.10
2019-01-16T23:33:57.668Z,20.75
2019-01-16T23:39:02.416Z,15.20
2019-01-16T23:41:41.325Z,23.37
2019-01-16T23:47:05.613Z,20.10
2019-01-16T23:49:38.469Z,20.67
2019-01-16T23:52:14.181Z,16.80
2019-01-16T23:54:44.029Z,20.30
2019-01-16T23:57:13.848Z,22.40
